createdAt,value
2018-08-03T00:01:12.145Z,7.83
2018-08-03T00:03:49.076Z,7.87
2018-08-03T00:06:26.554Z,7.67
2018-08-03T00:09:04.464Z,7.63
2018-08-03T00:11:44.878Z,9.90
2018-08-03T00:14:22.975Z,9.33
2018-08-03T00:17:00.856Z,9.97
2018-08-03T00:19:38.370Z,8.13
2018-08-03T00:22:20.604Z,8.67
2018-08-03T00:24:57.906Z,11.43
2018-08-03T00:27:36.262Z,9.37
2018-08-03T00:30:13.215Z,8.10
2018-08-03T00:45:12.322Z,8.33
2018-08-03T00:47:49.168Z,11.57
2018-08-03T00:50:26.469Z,11.07
2018-08-03T00:53:04.335Z,9.53
2018-08-03T00:55:41.718Z,10.00
2018-08-03T00:58:19.076Z,7.97
2018-08-03T01:00:56.140Z,12.87
2018-08-03T01:03:34.333Z,10.23
2018-08-03T01:06:11.907Z,12.73
2018-08-03T01:08:49.606Z,11.63
2018-08-03T01:11:28.017Z,11.70
2018-08-03T01:14:05.102Z,11.17
2018-08-03T01:16:43.767Z,12.00
2018-08-03T01:19:20.576Z,11.77
2018-08-03T01:21:59.478Z,10.73
2018-08-03T01:24:38.345Z,12.03
2018-08-03T01:27:16.831Z,12.30
2018-08-03T01:32:58.976Z,10.63
2018-08-03T01:38:59.214Z,8.67
2018-08-03T01:41:38.978Z,10.93
2018-08-03T01:44:18.368Z,14.43
2018-08-03T01:46:55.009Z,11.10
2018-08-03T01:49:32.244Z,9.37
2018-08-03T01:52:09.565Z,11.97
2018-08-03T01:54:46.810Z,8.57
2018-08-03T01:57:23.730Z,10.17
2018-08-03T02:00:04.881Z,12.23
2018-08-03T02:02:42.335Z,9.77
2018-08-03T02:05:21.175Z,10.23
2018-08-03T02:08:00.554Z,9.77
2018-08-03T02:13:42.583Z,8.77
2018-08-03T02:16:19.624Z,10.47
2018-08-03T02:18:57.693Z,11.47
2018-08-03T02:21:34.678Z,11.23
2018-08-03T02:24:13.215Z,9.23
2018-08-03T02:26:50.343Z,10.63
2018-08-03T02:29:27.802Z,10.63
2018-08-03T02:32:06.223Z,10.80
2018-08-03T02:34:50.163Z,12.57
2018-08-03T02:37:27.254Z,13.00
2018-08-03T02:48:10.131Z,14.30
2018-08-03T02:50:47.306Z,12.50
2018-08-03T02:53:24.087Z,12.30
2018-08-03T02:56:01.365Z,11.43
2018-08-03T02:58:38.307Z,13.83
2018-08-03T03:01:19.500Z,13.67
2018-08-03T03:03:56.710Z,13.50
2018-08-03T03:06:54.336Z,9.73
2018-08-03T03:09:32.078Z,11.57
2018-08-03T03:12:12.273Z,9.20
2018-08-03T03:14:49.167Z,9.87
2018-08-03T03:17:26.811Z,13.80
2018-08-03T03:20:04.030Z,11.10
2018-08-03T03:22:42.535Z,12.27
2018-08-03T03:25:19.672Z,15.37
2018-08-03T03:27:56.982Z,11.63
2018-08-03T03:30:33.942Z,10.70
2018-08-03T03:33:11.054Z,10.47
2018-08-03T03:35:48.417Z,10.47
2018-08-03T03:38:25.841Z,11.00
2018-08-03T03:41:04.611Z,10.93
2018-08-03T03:43:42.538Z,12.07
2018-08-03T03:46:19.886Z,11.87
2018-08-03T03:48:58.761Z,12.97
2018-08-03T03:54:39.527Z,20.43
2018-08-03T03:57:16.483Z,18.40
2018-08-03T03:59:56.134Z,13.10
2018-08-03T04:02:35.115Z,14.67
2018-08-03T04:05:16.316Z,13.83
2018-08-03T04:07:53.303Z,13.70
2018-08-03T04:10:30.193Z,13.90
2018-08-03T04:13:08.517Z,12.33
2018-08-03T04:15:46.929Z,13.07
2018-08-03T04:18:24.977Z,15.53
2018-08-03T04:21:03.797Z,11.97
2018-08-03T04:23:40.871Z,16.90
2018-08-03T04:26:18.031Z,13.67
2018-08-03T04:28:55.860Z,16.60
2018-08-03T04:31:33.173Z,21.07
2018-08-03T04:34:09.862Z,16.57
2018-08-03T04:36:46.866Z,14.60
2018-08-03T04:39:24.097Z,13.77
2018-08-03T04:42:01.409Z,17.10
2018-08-03T04:44:48.472Z,16.00
2018-08-03T04:47:27.777Z,23.53
2018-08-03T04:50:04.759Z,17.13
2018-08-03T04:52:43.199Z,15.60
2018-08-03T04:55:20.490Z,19.97
2018-08-03T04:57:58.112Z,16.50
2018-08-03T05:00:36.230Z,17.77
2018-08-03T05:03:13.189Z,17.57
2018-08-03T05:05:50.180Z,17.10
2018-08-03T05:08:30.713Z,20.13
2018-08-03T05:11:08.596Z,22.40
2018-08-03T05:13:47.039Z,15.80
2018-08-03T05:16:25.623Z,21.20
2018-08-03T05:19:02.641Z,17.80
2018-08-03T05:21:39.313Z,18.60
2018-08-03T05:24:27.522Z,19.23
2018-08-03T05:27:11.731Z,15.80
2018-08-03T05:29:49.271Z,16.93
2018-08-03T05:32:27.422Z,19.53
2018-08-03T05:35:13.500Z,16.63
2018-08-03T05:37:53.424Z,14.00
2018-08-03T05:43:14.062Z,14.57
2018-08-03T05:45:51.286Z,14.37
2018-08-03T05:48:47.259Z,12.90
2018-08-03T05:51:34.397Z,13.73
2018-08-03T05:54:11.339Z,13.60
2018-08-03T05:56:51.733Z,12.67
2018-08-03T05:59:33.302Z,15.90
2018-08-03T06:02:11.867Z,12.80
2018-08-03T06:04:52.796Z,19.00
2018-08-03T06:07:29.955Z,12.40
2018-08-03T06:13:11.232Z,13.57
2018-08-03T06:15:53.912Z,12.53
2018-08-03T06:18:31.360Z,13.83
2018-08-03T06:21:08.226Z,12.00
2018-08-03T06:29:57.844Z,9.00
2018-08-03T06:32:38.338Z,9.47
2018-08-03T06:35:17.720Z,8.53
2018-08-03T06:37:58.952Z,9.40
2018-08-03T06:40:38.605Z,12.90
2018-08-03T06:43:18.568Z,11.33
2018-08-03T06:46:03.084Z,9.77
2018-08-03T06:54:48.628Z,9.93
2018-08-03T06:57:25.895Z,9.73
2018-08-03T07:00:03.930Z,9.90
2018-08-03T07:02:40.686Z,10.67
2018-08-03T07:05:18.517Z,10.23
2018-08-03T07:08:00.011Z,11.83
2018-08-03T07:10:43.419Z,9.10
2018-08-03T07:13:20.163Z,9.43
2018-08-03T07:15:58.411Z,12.33
2018-08-03T07:18:40.937Z,11.03
2018-08-03T07:21:27.252Z,12.23
2018-08-03T07:25:27.887Z,14.07
2018-08-03T07:28:05.298Z,12.03
2018-08-03T07:30:42.166Z,12.43
2018-08-03T07:33:22.895Z,11.87
2018-08-03T07:36:00.155Z,10.97
2018-08-03T07:38:38.854Z,11.53
2018-08-03T07:41:15.717Z,13.50
2018-08-03T07:43:52.993Z,9.80
2018-08-03T07:46:29.760Z,12.53
2018-08-03T07:49:13.312Z,10.23
2018-08-03T07:51:50.130Z,10.20
2018-08-03T07:54:27.411Z,11.47
2018-08-03T07:57:04.287Z,11.93
2018-08-03T07:59:43.552Z,10.67
2018-08-03T08:02:20.408Z,10.40
2018-08-03T08:04:57.688Z,12.93
2018-08-03T08:10:40.351Z,12.30
2018-08-03T08:13:17.364Z,13.07
2018-08-03T08:15:55.776Z,10.57
2018-08-03T08:18:32.642Z,10.60
2018-08-03T08:21:10.399Z,11.67
2018-08-03T08:23:47.278Z,11.20
2018-08-03T08:32:44.719Z,11.37
2018-08-03T08:35:22.518Z,12.47
2018-08-03T08:38:14.229Z,12.00
2018-08-03T08:40:51.233Z,10.17
2018-08-03T08:43:29.609Z,11.30
2018-08-03T08:46:06.839Z,11.53
2018-08-03T08:48:44.165Z,11.80
2018-08-03T08:51:21.087Z,13.50
2018-08-03T08:54:00.260Z,11.17
2018-08-03T08:56:37.034Z,12.70
2018-08-03T08:59:15.332Z,13.63
2018-08-03T09:01:52.266Z,13.07
2018-08-03T09:04:31.156Z,15.60
2018-08-03T09:07:07.916Z,13.93
2018-08-03T09:09:49.769Z,14.10
2018-08-03T09:12:27.547Z,12.93
2018-08-03T09:15:06.061Z,14.63
2018-08-03T09:23:56.340Z,13.70
2018-08-03T09:26:38.044Z,11.20
2018-08-03T09:29:19.255Z,11.47
2018-08-03T09:35:00.349Z,12.83
2018-08-03T09:37:36.582Z,11.93
2018-08-03T09:40:18.369Z,11.97
2018-08-03T09:42:56.036Z,12.27
2018-08-03T09:45:34.720Z,12.83
2018-08-03T09:48:11.748Z,15.77
2018-08-03T09:50:50.012Z,14.37
2018-08-03T09:53:27.394Z,15.80
2018-08-03T09:59:08.928Z,10.63
2018-08-03T10:01:45.872Z,13.13
2018-08-03T10:04:22.306Z,11.47
2018-08-03T10:06:59.679Z,10.87
2018-08-03T10:22:03.189Z,12.33
2018-08-03T10:24:50.507Z,13.17
2018-08-03T10:27:27.883Z,13.20
2018-08-03T10:30:05.911Z,10.67
2018-08-03T10:32:42.816Z,11.67
2018-08-03T10:35:19.661Z,11.97
2018-08-03T10:37:56.888Z,14.47
2018-08-03T10:40:33.817Z,10.47
2018-08-03T10:43:14.295Z,10.67
2018-08-03T10:45:51.239Z,10.80
2018-08-03T10:48:28.558Z,10.77
2018-08-03T10:51:05.344Z,11.30
2018-08-03T10:53:44.333Z,11.07
2018-08-03T10:56:21.240Z,12.27
2018-08-03T10:58:58.622Z,13.00
2018-08-03T11:01:35.390Z,10.67
2018-08-03T11:04:13.768Z,12.63
2018-08-03T11:06:50.906Z,11.30
2018-08-03T11:09:28.198Z,12.73
2018-08-03T11:12:06.252Z,11.47
2018-08-03T11:27:03.090Z,10.70
2018-08-03T11:29:40.461Z,11.63
2018-08-03T11:32:18.767Z,11.93
2018-08-03T11:34:56.203Z,12.90
2018-08-03T11:37:35.507Z,11.50
2018-08-03T11:40:12.385Z,12.43
2018-08-03T11:42:49.527Z,12.33
2018-08-03T11:48:39.327Z,11.07
2018-08-03T11:51:16.364Z,12.60
2018-08-03T11:53:56.183Z,10.63
2018-08-03T11:56:35.241Z,11.73
2018-08-03T11:59:13.581Z,11.30
2018-08-03T12:01:50.545Z,10.97
2018-08-03T12:04:32.209Z,11.50
2018-08-03T12:07:20.435Z,12.27
2018-08-03T12:09:58.586Z,10.20
2018-08-03T12:22:01.327Z,14.53
2018-08-03T12:24:38.323Z,11.30
2018-08-03T12:33:27.192Z,10.33
2018-08-03T12:36:04.833Z,13.60
2018-08-03T12:38:45.582Z,11.07
2018-08-03T12:41:22.422Z,12.27
2018-08-03T12:44:01.736Z,11.83
2018-08-03T12:52:46.641Z,11.07
2018-08-03T13:02:38.574Z,10.13
2018-08-03T13:05:15.751Z,12.07
2018-08-03T13:07:52.752Z,13.53
2018-08-03T13:10:29.643Z,10.43
2018-08-03T13:13:07.292Z,11.57
2018-08-03T13:15:44.655Z,11.70
2018-08-03T13:18:21.855Z,12.20
2018-08-03T13:20:58.855Z,10.47
2018-08-03T13:23:45.469Z,9.07
2018-08-03T13:26:22.250Z,9.63
2018-08-03T13:29:03.624Z,9.67
2018-08-03T13:31:40.482Z,10.30
2018-08-03T13:34:19.500Z,9.60
2018-08-03T13:40:01.313Z,9.50
2018-08-03T13:42:38.302Z,12.47
2018-08-03T13:45:15.527Z,9.40
2018-08-03T13:47:53.033Z,9.03
2018-08-03T13:50:31.136Z,9.47
2018-08-03T13:53:08.501Z,9.67
2018-08-03T13:55:46.271Z,9.83
2018-08-03T13:58:30.878Z,10.73
2018-08-03T14:10:20.137Z,12.00
2018-08-03T14:18:49.544Z,9.20
2018-08-03T14:21:29.741Z,10.37
2018-08-03T14:24:06.260Z,9.87
2018-08-03T14:26:43.319Z,14.53
2018-08-03T14:29:20.290Z,10.73
2018-08-03T14:31:57.665Z,13.10
2018-08-03T14:34:34.123Z,13.73
2018-08-03T14:37:11.482Z,11.90
2018-08-03T14:39:51.716Z,10.03
2018-08-03T16:20:24.882Z,12.23
2018-08-03T16:23:02.287Z,8.98
2018-08-03T16:25:39.545Z,8.30
2018-08-03T16:28:21.804Z,9.03
2018-08-03T16:31:10.913Z,8.35
2018-08-03T16:33:47.839Z,8.23
2018-08-03T16:36:26.204Z,7.97
2018-08-03T16:39:05.352Z,10.18
2018-08-03T16:41:44.769Z,8.40
2018-08-03T16:44:21.663Z,8.03
2018-08-03T16:47:00.527Z,7.30
2018-08-03T16:49:43.498Z,7.67
2018-08-03T16:52:27.211Z,7.75
2018-08-03T16:55:04.713Z,6.97
2018-08-03T16:57:43.672Z,8.03
2018-08-03T17:00:20.505Z,8.25
